DLH464 EDDM-KMCO
Flight info
| Callsign | DLH464 |
|---|---|
| Flight time | N/A |
| Altitude | 40000 |
| Route | GIVMI6Q GIVMI Y101 INBED DCT REKDI DCT LOHRE DCT ADKUV DCT BUB DCT DENUT L610 LAM L179 ICTAM M197 ENHAQ DCT GAJIT DCT BAPHU DCT LESLU DCT ADARA/M083F370 DCT 52N020W 52N030W 5130N04000W 50N050W DCT ELSIR/M083F380 DCT CARAC M201 DRYED DCT ONGOT M202 SWRTZ/M083F400 M202 UKOKA/N0476F400 M202 HOBEE AR6 HIBAC ALYNA4 |
| Aircraft | A388/J-SADE2E3FGHIJ3J4J5M1RWXY/LB1D1 |
Departure
| Time | N/A |
|---|---|
| Airport | Munich Airport (EDDM) |
Arrival
| Time | 2026-04-23 05:21 |
|---|---|
| Airport | Orlando International Airport (KMCO) |
| Time | Latitude | Longitude | Altitude | Speed | Heading |
|---|---|---|---|---|---|
| 2026-04-23 02:43 | 40.21841 | -64.47416 | 40199 ft | 463 kts | 232° |
| 2026-04-23 02:44 | 40.17490 | -64.53647 | 40198 ft | 464 kts | 232° |
| 2026-04-23 02:44 | 40.13114 | -64.59903 | 40204 ft | 465 kts | 232° |
| 2026-04-23 02:45 | 40.08773 | -64.66093 | 40201 ft | 465 kts | 232° |
| 2026-04-23 02:45 | 40.04401 | -64.72315 | 40203 ft | 465 kts | 232° |
| 2026-04-23 02:46 | 40.00018 | -64.78541 | 40202 ft | 465 kts | 232° |
| 2026-04-23 02:46 | 39.95624 | -64.84770 | 40200 ft | 465 kts | 232° |
| 2026-04-23 02:47 | 39.91267 | -64.90934 | 40200 ft | 465 kts | 232° |
| 2026-04-23 02:47 | 39.86883 | -64.97123 | 40197 ft | 465 kts | 232° |
| 2026-04-23 02:48 | 39.82491 | -65.03310 | 40202 ft | 465 kts | 232° |
| 2026-04-23 02:48 | 39.78096 | -65.09489 | 40202 ft | 465 kts | 232° |
| 2026-04-23 02:49 | 39.73696 | -65.15665 | 40202 ft | 465 kts | 232° |
| 2026-04-23 02:49 | 39.69294 | -65.21829 | 40204 ft | 465 kts | 232° |
| 2026-04-23 02:50 | 39.65629 | -65.26952 | 40197 ft | 466 kts | 232° |
| 2026-04-23 02:50 | 39.61214 | -65.33110 | 40194 ft | 466 kts | 232° |
| 2026-04-23 02:51 | 39.56799 | -65.39259 | 40193 ft | 466 kts | 232° |
| 2026-04-23 02:51 | 39.52374 | -65.45408 | 40191 ft | 466 kts | 232° |
| 2026-04-23 02:52 | 39.47950 | -65.51544 | 40192 ft | 466 kts | 232° |
| 2026-04-23 02:52 | 39.43545 | -65.57640 | 40186 ft | 466 kts | 232° |
| 2026-04-23 02:53 | 39.39109 | -65.63768 | 40185 ft | 466 kts | 232° |
| 2026-04-23 02:53 | 39.34671 | -65.69886 | 40183 ft | 466 kts | 232° |
| 2026-04-23 02:54 | 39.30218 | -65.76012 | 40178 ft | 467 kts | 232° |
| 2026-04-23 02:54 | 39.25798 | -65.82081 | 40171 ft | 467 kts | 232° |
| 2026-04-23 02:55 | 39.21337 | -65.88195 | 40184 ft | 467 kts | 232° |
| 2026-04-23 02:55 | 39.16868 | -65.94306 | 40185 ft | 467 kts | 232° |
| 2026-04-23 02:56 | 39.12402 | -66.00402 | 40177 ft | 467 kts | 232° |
| 2026-04-23 02:56 | 39.07952 | -66.06465 | 40171 ft | 468 kts | 232° |
| 2026-04-23 02:57 | 39.03479 | -66.12545 | 40172 ft | 468 kts | 231° |
| 2026-04-23 02:57 | 38.99002 | -66.18621 | 40173 ft | 468 kts | 231° |
| 2026-04-23 02:58 | 38.94513 | -66.24700 | 40173 ft | 468 kts | 231° |
| 2026-04-23 02:58 | 38.90020 | -66.30772 | 40171 ft | 468 kts | 231° |
| 2026-04-23 02:59 | 38.85531 | -66.36827 | 40172 ft | 468 kts | 231° |
| 2026-04-23 02:59 | 38.81034 | -66.42881 | 40177 ft | 469 kts | 231° |
| 2026-04-23 03:00 | 38.76559 | -66.48898 | 40178 ft | 469 kts | 231° |
| 2026-04-23 03:00 | 38.72054 | -66.54946 | 40178 ft | 469 kts | 231° |
| 2026-04-23 03:01 | 38.67561 | -66.60968 | 40176 ft | 469 kts | 231° |
| 2026-04-23 03:01 | 38.63038 | -66.67001 | 40179 ft | 470 kts | 231° |
| 2026-04-23 03:02 | 38.58428 | -66.73006 | 40178 ft | 470 kts | 231° |
| 2026-04-23 03:02 | 38.53934 | -66.78990 | 40167 ft | 470 kts | 231° |
| 2026-04-23 03:03 | 38.49390 | -66.85012 | 40180 ft | 470 kts | 231° |
| 2026-04-23 03:03 | 38.44847 | -66.91006 | 40179 ft | 470 kts | 231° |
| 2026-04-23 03:04 | 38.40295 | -66.96998 | 40180 ft | 470 kts | 231° |
| 2026-04-23 03:04 | 38.35734 | -67.02989 | 40174 ft | 470 kts | 231° |
| 2026-04-23 03:05 | 38.31172 | -67.08964 | 40173 ft | 470 kts | 231° |
| 2026-04-23 03:05 | 38.26637 | -67.14892 | 40171 ft | 470 kts | 231° |
| 2026-04-23 03:06 | 38.22075 | -67.20844 | 40167 ft | 470 kts | 231° |
| 2026-04-23 03:06 | 38.17507 | -67.26792 | 40166 ft | 470 kts | 231° |
| 2026-04-23 03:07 | 38.12931 | -67.32739 | 40160 ft | 470 kts | 231° |
| 2026-04-23 03:07 | 38.08343 | -67.38690 | 40162 ft | 470 kts | 231° |
| 2026-04-23 03:08 | 38.03756 | -67.44629 | 40158 ft | 471 kts | 231° |
| 2026-04-23 03:08 | 37.99201 | -67.50515 | 40153 ft | 471 kts | 231° |
| 2026-04-23 03:09 | 37.94612 | -67.56433 | 40153 ft | 471 kts | 231° |
| 2026-04-23 03:09 | 37.90015 | -67.62353 | 40153 ft | 471 kts | 231° |
| 2026-04-23 03:10 | 37.85417 | -67.68261 | 40155 ft | 471 kts | 231° |
| 2026-04-23 03:10 | 37.80801 | -67.74180 | 40153 ft | 471 kts | 231° |
| 2026-04-23 03:11 | 37.76223 | -67.80040 | 40155 ft | 470 kts | 231° |
| 2026-04-23 03:11 | 37.71624 | -67.85918 | 40147 ft | 470 kts | 231° |
| 2026-04-23 03:12 | 37.67024 | -67.91783 | 40147 ft | 470 kts | 231° |
| 2026-04-23 03:12 | 37.62412 | -67.97654 | 40148 ft | 470 kts | 231° |
| 2026-04-23 03:13 | 37.57830 | -68.03474 | 40142 ft | 470 kts | 231° |
| 2026-04-23 03:13 | 37.53225 | -68.09316 | 40138 ft | 469 kts | 230° |
| 2026-04-23 03:14 | 37.48603 | -68.15166 | 40133 ft | 469 kts | 230° |
| 2026-04-23 03:14 | 37.43986 | -68.21000 | 40134 ft | 470 kts | 230° |
| 2026-04-23 03:15 | 37.39372 | -68.26818 | 40136 ft | 470 kts | 230° |
| 2026-04-23 03:15 | 37.34777 | -68.32601 | 40135 ft | 471 kts | 230° |
| 2026-04-23 03:16 | 37.30140 | -68.38427 | 40143 ft | 471 kts | 230° |
| 2026-04-23 03:16 | 37.23172 | -68.47162 | 40145 ft | 471 kts | 230° |
| 2026-04-23 03:17 | 37.18526 | -68.52974 | 40139 ft | 471 kts | 230° |
| 2026-04-23 03:17 | 37.13875 | -68.58780 | 40142 ft | 472 kts | 230° |
| 2026-04-23 03:18 | 37.09250 | -68.64543 | 40144 ft | 472 kts | 230° |
| 2026-04-23 03:18 | 37.04587 | -68.70343 | 40145 ft | 472 kts | 230° |
| 2026-04-23 03:19 | 36.99928 | -68.76127 | 40149 ft | 472 kts | 230° |
| 2026-04-23 03:19 | 36.95260 | -68.81913 | 40148 ft | 472 kts | 230° |
| 2026-04-23 03:20 | 36.90593 | -68.87685 | 40151 ft | 471 kts | 230° |
| 2026-04-23 03:20 | 36.85925 | -68.93449 | 40146 ft | 471 kts | 230° |
| 2026-04-23 03:21 | 36.81288 | -68.99165 | 40153 ft | 471 kts | 230° |
| 2026-04-23 03:21 | 36.76622 | -69.04906 | 40155 ft | 471 kts | 230° |
| 2026-04-23 03:22 | 36.71952 | -69.10640 | 40151 ft | 471 kts | 230° |
| 2026-04-23 03:22 | 36.67281 | -69.16366 | 40153 ft | 471 kts | 230° |
| 2026-04-23 03:23 | 36.62604 | -69.22089 | 40155 ft | 471 kts | 230° |
| 2026-04-23 03:23 | 36.57917 | -69.27815 | 40155 ft | 471 kts | 230° |
| 2026-04-23 03:24 | 36.53259 | -69.33495 | 40152 ft | 471 kts | 230° |
| 2026-04-23 03:24 | 36.48574 | -69.39197 | 40150 ft | 472 kts | 230° |
| 2026-04-23 03:25 | 36.43881 | -69.44898 | 40167 ft | 472 kts | 230° |
| 2026-04-23 03:25 | 36.39188 | -69.50589 | 40166 ft | 471 kts | 230° |
| 2026-04-23 03:26 | 36.34487 | -69.56281 | 40166 ft | 471 kts | 230° |
| 2026-04-23 03:26 | 36.29792 | -69.61954 | 40160 ft | 471 kts | 230° |
| 2026-04-23 03:27 | 36.25091 | -69.67625 | 40162 ft | 471 kts | 229° |
| 2026-04-23 03:27 | 36.20423 | -69.73246 | 40165 ft | 471 kts | 229° |
| 2026-04-23 03:28 | 36.15725 | -69.78893 | 40165 ft | 471 kts | 229° |
| 2026-04-23 03:28 | 36.11025 | -69.84533 | 40163 ft | 471 kts | 229° |
| 2026-04-23 03:29 | 36.06312 | -69.90178 | 40160 ft | 471 kts | 229° |
| 2026-04-23 03:29 | 36.01597 | -69.95817 | 40173 ft | 472 kts | 229° |
| 2026-04-23 03:30 | 35.96914 | -70.01407 | 40171 ft | 471 kts | 229° |
| 2026-04-23 03:30 | 35.92199 | -70.07025 | 40170 ft | 471 kts | 229° |
| 2026-04-23 03:31 | 35.87479 | -70.12638 | 40167 ft | 471 kts | 229° |
| 2026-04-23 03:31 | 35.82757 | -70.18246 | 40168 ft | 471 kts | 229° |
| 2026-04-23 03:32 | 35.78042 | -70.23834 | 40167 ft | 471 kts | 229° |
| 2026-04-23 03:32 | 35.73313 | -70.29430 | 40166 ft | 471 kts | 229° |
| 2026-04-23 03:33 | 35.68590 | -70.35009 | 40168 ft | 471 kts | 229° |
| 2026-04-23 03:33 | 35.63854 | -70.40594 | 40168 ft | 471 kts | 229° |
| 2026-04-23 03:34 | 35.59119 | -70.46168 | 40168 ft | 472 kts | 229° |
| 2026-04-23 03:34 | 35.54400 | -70.51714 | 40169 ft | 472 kts | 229° |
| 2026-04-23 03:35 | 35.49646 | -70.57290 | 40171 ft | 472 kts | 229° |
| 2026-04-23 03:35 | 35.44893 | -70.62857 | 40169 ft | 472 kts | 229° |
| 2026-04-23 03:36 | 35.40935 | -70.67485 | 40171 ft | 472 kts | 229° |
| 2026-04-23 03:36 | 35.36170 | -70.73047 | 40172 ft | 473 kts | 228° |
| 2026-04-23 03:37 | 35.31403 | -70.78602 | 40175 ft | 473 kts | 228° |
| 2026-04-23 03:37 | 35.26628 | -70.84159 | 40175 ft | 473 kts | 228° |
| 2026-04-23 03:38 | 35.21883 | -70.89670 | 40175 ft | 473 kts | 228° |
| 2026-04-23 03:38 | 35.17108 | -70.95205 | 40166 ft | 473 kts | 228° |
| 2026-04-23 03:39 | 35.12327 | -71.00740 | 40183 ft | 473 kts | 228° |
| 2026-04-23 03:39 | 35.07568 | -71.06239 | 40177 ft | 473 kts | 228° |
| 2026-04-23 03:40 | 35.02790 | -71.11751 | 40177 ft | 472 kts | 228° |
| 2026-04-23 03:40 | 34.98005 | -71.17261 | 40174 ft | 472 kts | 228° |
| 2026-04-23 03:41 | 34.93220 | -71.22762 | 40177 ft | 472 kts | 228° |
| 2026-04-23 03:41 | 34.88434 | -71.28256 | 40180 ft | 472 kts | 228° |
| 2026-04-23 03:42 | 34.83654 | -71.33733 | 40179 ft | 472 kts | 228° |
| 2026-04-23 03:42 | 34.78863 | -71.39214 | 40182 ft | 472 kts | 228° |
| 2026-04-23 03:43 | 34.74076 | -71.44680 | 40184 ft | 472 kts | 228° |
| 2026-04-23 03:43 | 34.69309 | -71.50115 | 40184 ft | 472 kts | 227° |
| 2026-04-23 03:44 | 34.64512 | -71.55575 | 40186 ft | 472 kts | 227° |
| 2026-04-23 03:44 | 34.59719 | -71.61021 | 40186 ft | 472 kts | 227° |
| 2026-04-23 03:45 | 34.54932 | -71.66451 | 40187 ft | 471 kts | 227° |
| 2026-04-23 03:45 | 34.50138 | -71.71881 | 40189 ft | 471 kts | 227° |
| 2026-04-23 03:46 | 34.45347 | -71.77298 | 40193 ft | 471 kts | 227° |
| 2026-04-23 03:46 | 34.40553 | -71.82709 | 40193 ft | 471 kts | 227° |
| 2026-04-23 03:47 | 34.35785 | -71.88083 | 40190 ft | 470 kts | 227° |
| 2026-04-23 03:47 | 34.31001 | -71.93466 | 40189 ft | 470 kts | 227° |
| 2026-04-23 03:48 | 34.26203 | -71.98856 | 40194 ft | 470 kts | 227° |
| 2026-04-23 03:48 | 34.21410 | -72.04231 | 40189 ft | 470 kts | 227° |
| 2026-04-23 03:49 | 34.16609 | -72.09609 | 40194 ft | 470 kts | 227° |
| 2026-04-23 03:49 | 34.11843 | -72.14940 | 40193 ft | 470 kts | 227° |
| 2026-04-23 03:50 | 34.07034 | -72.20313 | 40207 ft | 470 kts | 227° |
| 2026-04-23 03:50 | 34.02214 | -72.25690 | 40204 ft | 471 kts | 227° |
| 2026-04-23 03:51 | 33.97537 | -72.31114 | 40194 ft | 467 kts | 233° |
| 2026-04-23 03:51 | 33.93454 | -72.37198 | 40202 ft | 465 kts | 236° |
| 2026-04-23 03:52 | 33.89428 | -72.43284 | 40201 ft | 465 kts | 236° |
| 2026-04-23 03:52 | 33.85390 | -72.49339 | 40203 ft | 465 kts | 236° |
| 2026-04-23 03:53 | 33.81328 | -72.55409 | 40209 ft | 465 kts | 236° |
| 2026-04-23 03:53 | 33.77261 | -72.61475 | 40209 ft | 465 kts | 236° |
| 2026-04-23 03:54 | 33.73197 | -72.67527 | 40204 ft | 465 kts | 236° |
| 2026-04-23 03:54 | 33.69136 | -72.73565 | 40209 ft | 465 kts | 236° |
| 2026-04-23 03:55 | 33.65065 | -72.79607 | 40209 ft | 466 kts | 235° |
| 2026-04-23 03:55 | 33.60995 | -72.85638 | 40210 ft | 466 kts | 235° |
| 2026-04-23 03:56 | 33.56908 | -72.91684 | 40209 ft | 466 kts | 235° |
| 2026-04-23 03:56 | 33.52826 | -72.97712 | 40212 ft | 466 kts | 235° |
| 2026-04-23 03:57 | 33.48731 | -73.03749 | 40210 ft | 466 kts | 235° |
| 2026-04-23 03:57 | 33.44656 | -73.09748 | 40210 ft | 466 kts | 235° |
| 2026-04-23 03:58 | 33.40557 | -73.15772 | 40209 ft | 466 kts | 235° |
| 2026-04-23 03:58 | 33.36457 | -73.21787 | 40212 ft | 466 kts | 235° |
| 2026-04-23 03:59 | 33.32380 | -73.27758 | 40216 ft | 466 kts | 235° |
| 2026-04-23 03:59 | 33.28266 | -73.33774 | 40218 ft | 466 kts | 235° |
| 2026-04-23 04:00 | 33.24159 | -73.39770 | 40214 ft | 466 kts | 235° |
| 2026-04-23 04:00 | 33.20067 | -73.45725 | 40217 ft | 466 kts | 235° |
| 2026-04-23 04:01 | 33.15952 | -73.51706 | 40219 ft | 466 kts | 235° |
| 2026-04-23 04:01 | 33.11836 | -73.57689 | 40215 ft | 466 kts | 235° |
| 2026-04-23 04:02 | 33.07711 | -73.63677 | 40212 ft | 465 kts | 235° |
| 2026-04-23 04:02 | 33.03622 | -73.69598 | 40211 ft | 465 kts | 234° |
| 2026-04-23 04:03 | 32.99495 | -73.75565 | 40218 ft | 465 kts | 234° |
| 2026-04-23 04:03 | 32.95360 | -73.81531 | 40217 ft | 465 kts | 234° |
| 2026-04-23 04:04 | 32.91262 | -73.87434 | 40220 ft | 465 kts | 234° |
| 2026-04-23 04:04 | 32.87121 | -73.93391 | 40219 ft | 465 kts | 234° |
| 2026-04-23 04:05 | 32.82982 | -73.99334 | 40233 ft | 465 kts | 234° |
| 2026-04-23 04:05 | 32.78874 | -74.05226 | 40227 ft | 465 kts | 234° |
| 2026-04-23 04:06 | 32.74733 | -74.11153 | 40229 ft | 465 kts | 234° |
| 2026-04-23 04:06 | 32.70593 | -74.17070 | 40222 ft | 465 kts | 234° |
| 2026-04-23 04:07 | 32.66469 | -74.22954 | 40224 ft | 465 kts | 234° |
| 2026-04-23 04:07 | 32.62326 | -74.28856 | 40222 ft | 465 kts | 234° |
| 2026-04-23 04:08 | 32.58199 | -74.34727 | 40220 ft | 464 kts | 234° |
| 2026-04-23 04:08 | 32.54065 | -74.40598 | 40217 ft | 464 kts | 234° |
| 2026-04-23 04:09 | 32.49907 | -74.46493 | 40215 ft | 464 kts | 234° |
| 2026-04-23 04:09 | 32.45793 | -74.52317 | 40217 ft | 463 kts | 234° |
| 2026-04-23 04:10 | 32.41642 | -74.58184 | 40216 ft | 463 kts | 234° |
| 2026-04-23 04:10 | 32.37520 | -74.64002 | 40217 ft | 463 kts | 234° |
| 2026-04-23 04:11 | 32.33382 | -74.69832 | 40221 ft | 463 kts | 234° |
| 2026-04-23 04:11 | 32.29229 | -74.75674 | 40223 ft | 462 kts | 234° |
| 2026-04-23 04:12 | 32.25110 | -74.81460 | 40218 ft | 462 kts | 234° |
| 2026-04-23 04:12 | 32.20967 | -74.87270 | 40222 ft | 462 kts | 234° |
| 2026-04-23 04:13 | 32.16818 | -74.93080 | 40219 ft | 462 kts | 234° |
| 2026-04-23 04:13 | 32.12673 | -74.98875 | 40215 ft | 461 kts | 234° |
| 2026-04-23 04:14 | 32.08533 | -75.04655 | 40215 ft | 461 kts | 234° |
| 2026-04-23 04:14 | 32.04389 | -75.10430 | 40211 ft | 461 kts | 234° |
| 2026-04-23 04:15 | 32.00270 | -75.16162 | 40223 ft | 461 kts | 234° |
| 2026-04-23 04:16 | 31.94056 | -75.24793 | 40224 ft | 460 kts | 234° |
| 2026-04-23 04:16 | 31.89916 | -75.30533 | 40220 ft | 459 kts | 234° |
| 2026-04-23 04:17 | 31.85774 | -75.36266 | 40221 ft | 459 kts | 234° |
| 2026-04-23 04:17 | 31.81648 | -75.41969 | 40216 ft | 458 kts | 234° |
| 2026-04-23 04:18 | 31.77513 | -75.47676 | 40218 ft | 458 kts | 234° |
| 2026-04-23 04:18 | 31.73380 | -75.53371 | 40216 ft | 457 kts | 234° |
| 2026-04-23 04:19 | 31.69251 | -75.59053 | 40216 ft | 457 kts | 234° |
| 2026-04-23 04:19 | 31.65116 | -75.64733 | 40215 ft | 457 kts | 234° |
| 2026-04-23 04:20 | 31.61011 | -75.70364 | 40215 ft | 457 kts | 234° |
| 2026-04-23 04:20 | 31.56878 | -75.76025 | 40217 ft | 457 kts | 234° |
| 2026-04-23 04:21 | 31.52737 | -75.81689 | 40220 ft | 456 kts | 234° |
| 2026-04-23 04:21 | 31.48604 | -75.87334 | 40220 ft | 456 kts | 234° |
| 2026-04-23 04:22 | 31.44463 | -75.92981 | 40224 ft | 456 kts | 234° |
| 2026-04-23 04:22 | 31.40325 | -75.98615 | 40221 ft | 456 kts | 234° |
| 2026-04-23 04:23 | 31.36183 | -76.04247 | 40221 ft | 456 kts | 234° |
| 2026-04-23 04:23 | 31.32068 | -76.09833 | 40220 ft | 455 kts | 234° |
| 2026-04-23 04:24 | 31.27923 | -76.15453 | 40222 ft | 455 kts | 234° |
| 2026-04-23 04:24 | 31.24476 | -76.20120 | 40219 ft | 455 kts | 234° |
| 2026-04-23 04:25 | 31.20341 | -76.25711 | 40216 ft | 455 kts | 234° |
| 2026-04-23 04:25 | 31.15529 | -76.32206 | 40222 ft | 454 kts | 234° |
| 2026-04-23 04:26 | 31.12063 | -76.36878 | 40217 ft | 454 kts | 234° |
| 2026-04-23 04:26 | 31.07925 | -76.42449 | 40222 ft | 454 kts | 234° |
| 2026-04-23 04:27 | 31.03788 | -76.48009 | 40219 ft | 454 kts | 234° |
| 2026-04-23 04:27 | 30.99648 | -76.53566 | 40216 ft | 454 kts | 234° |
| 2026-04-23 04:28 | 30.93433 | -76.61894 | 40218 ft | 453 kts | 234° |
| 2026-04-23 04:28 | 30.89292 | -76.67431 | 40215 ft | 453 kts | 234° |
| 2026-04-23 04:29 | 30.85176 | -76.72928 | 40217 ft | 453 kts | 234° |
| 2026-04-23 04:29 | 30.81033 | -76.78454 | 40217 ft | 453 kts | 234° |
| 2026-04-23 04:30 | 30.76886 | -76.83976 | 40208 ft | 453 kts | 234° |
| 2026-04-23 04:30 | 30.72746 | -76.89484 | 40218 ft | 452 kts | 234° |
| 2026-04-23 04:31 | 30.68623 | -76.95013 | 40220 ft | 451 kts | 236° |
| 2026-04-23 04:31 | 30.65099 | -77.00974 | 40219 ft | 444 kts | 244° |
| 2026-04-23 04:32 | 30.62451 | -77.07410 | 40219 ft | 440 kts | 252° |
| 2026-04-23 04:32 | 30.60370 | -77.14016 | 40216 ft | 439 kts | 253° |
| 2026-04-23 04:33 | 30.58257 | -77.20671 | 40215 ft | 439 kts | 253° |
| 2026-04-23 04:33 | 30.56137 | -77.27313 | 40214 ft | 439 kts | 253° |
| 2026-04-23 04:34 | 30.54012 | -77.33961 | 40220 ft | 439 kts | 253° |
| 2026-04-23 04:34 | 30.51886 | -77.40598 | 40218 ft | 439 kts | 253° |
| 2026-04-23 04:35 | 30.49771 | -77.47186 | 40216 ft | 439 kts | 253° |
| 2026-04-23 04:35 | 30.47642 | -77.53807 | 40217 ft | 438 kts | 252° |
| 2026-04-23 04:36 | 30.45506 | -77.60435 | 40218 ft | 438 kts | 252° |
| 2026-04-23 04:36 | 30.43363 | -77.67051 | 40214 ft | 439 kts | 251° |
| 2026-04-23 04:37 | 30.40396 | -77.73261 | 40214 ft | 446 kts | 238° |
| 2026-04-23 04:37 | 30.36151 | -77.78588 | 40219 ft | 455 kts | 225° |
| 2026-04-23 04:38 | 30.30968 | -77.82907 | 40215 ft | 459 kts | 220° |
| 2026-04-23 04:38 | 30.25727 | -77.87135 | 40211 ft | 459 kts | 221° |
| 2026-04-23 04:39 | 30.20492 | -77.91355 | 40218 ft | 459 kts | 221° |
| 2026-04-23 04:39 | 30.15287 | -77.95538 | 40213 ft | 459 kts | 221° |
| 2026-04-23 04:40 | 30.10031 | -77.99753 | 40220 ft | 459 kts | 221° |
| 2026-04-23 04:40 | 30.04784 | -78.03957 | 40216 ft | 459 kts | 221° |
| 2026-04-23 04:41 | 29.99536 | -78.08156 | 40213 ft | 459 kts | 221° |
| 2026-04-23 04:41 | 29.94278 | -78.12357 | 40214 ft | 459 kts | 221° |
| 2026-04-23 04:42 | 29.89028 | -78.16547 | 40212 ft | 459 kts | 221° |
| 2026-04-23 04:42 | 29.83776 | -78.20731 | 40206 ft | 458 kts | 221° |
| 2026-04-23 04:43 | 29.78533 | -78.24905 | 40207 ft | 459 kts | 221° |
| 2026-04-23 04:43 | 29.73272 | -78.29086 | 40208 ft | 459 kts | 221° |
| 2026-04-23 04:44 | 29.68058 | -78.33226 | 40207 ft | 459 kts | 221° |
| 2026-04-23 04:44 | 29.62793 | -78.37400 | 40201 ft | 459 kts | 221° |
| 2026-04-23 04:45 | 29.57522 | -78.41573 | 40210 ft | 459 kts | 221° |
| 2026-04-23 04:45 | 29.52266 | -78.45752 | 40209 ft | 459 kts | 221° |
| 2026-04-23 04:46 | 29.47019 | -78.49954 | 40208 ft | 459 kts | 221° |
| 2026-04-23 04:46 | 29.42259 | -78.54697 | 40208 ft | 448 kts | 234° |
| 2026-04-23 04:47 | 29.38807 | -78.60473 | 40209 ft | 438 kts | 247° |
| 2026-04-23 04:47 | 29.36613 | -78.66934 | 40207 ft | 434 kts | 255° |
| 2026-04-23 04:48 | 29.34641 | -78.73490 | 40210 ft | 435 kts | 254° |
| 2026-04-23 04:48 | 29.32642 | -78.80028 | 40208 ft | 435 kts | 254° |
| 2026-04-23 04:49 | 29.30643 | -78.86580 | 40206 ft | 435 kts | 254° |
| 2026-04-23 04:49 | 29.28661 | -78.93080 | 40208 ft | 435 kts | 254° |
| 2026-04-23 04:50 | 29.26692 | -78.99606 | 39992 ft | 430 kts | 254° |
| 2026-04-23 04:50 | 29.25717 | -79.02834 | 39753 ft | 426 kts | 254° |
| 2026-04-23 04:50 | 29.24750 | -79.06034 | 39530 ft | 426 kts | 254° |
| 2026-04-23 04:51 | 29.23775 | -79.09257 | 39313 ft | 426 kts | 254° |
| 2026-04-23 04:51 | 29.22842 | -79.12466 | 38882 ft | 425 kts | 256° |
| 2026-04-23 04:51 | 29.21975 | -79.15727 | 37947 ft | 430 kts | 255° |
| 2026-04-23 04:51 | 29.20974 | -79.18986 | 37024 ft | 435 kts | 253° |
| 2026-04-23 04:52 | 29.19967 | -79.22233 | 36452 ft | 432 kts | 253° |
| 2026-04-23 04:52 | 29.18957 | -79.25460 | 35965 ft | 428 kts | 253° |
| 2026-04-23 04:52 | 29.17945 | -79.28678 | 35038 ft | 434 kts | 253° |
| 2026-04-23 04:52 | 29.16913 | -79.31942 | 34270 ft | 437 kts | 252° |
| 2026-04-23 04:53 | 29.15918 | -79.35158 | 33733 ft | 433 kts | 253° |
| 2026-04-23 04:53 | 29.14931 | -79.38449 | 33428 ft | 431 kts | 253° |
| 2026-04-23 04:53 | 29.13976 | -79.41649 | 32905 ft | 431 kts | 253° |
| 2026-04-23 04:53 | 29.13007 | -79.44879 | 32367 ft | 428 kts | 253° |
| 2026-04-23 04:54 | 29.12042 | -79.48082 | 31839 ft | 424 kts | 254° |
| 2026-04-23 04:54 | 29.11083 | -79.51252 | 31309 ft | 419 kts | 254° |
| 2026-04-23 04:54 | 29.10132 | -79.54387 | 30796 ft | 415 kts | 254° |
| 2026-04-23 04:54 | 29.09192 | -79.57485 | 30270 ft | 411 kts | 254° |
| 2026-04-23 04:55 | 29.08259 | -79.60563 | 29711 ft | 407 kts | 254° |
| 2026-04-23 04:55 | 29.07340 | -79.63597 | 29192 ft | 401 kts | 254° |
| 2026-04-23 04:55 | 29.06430 | -79.66596 | 28687 ft | 397 kts | 255° |
| 2026-04-23 04:55 | 29.05533 | -79.69552 | 28191 ft | 392 kts | 255° |
| 2026-04-23 04:56 | 29.04642 | -79.72484 | 27684 ft | 388 kts | 255° |
| 2026-04-23 04:56 | 29.03759 | -79.75389 | 27189 ft | 384 kts | 255° |
| 2026-04-23 04:56 | 29.02885 | -79.78261 | 26696 ft | 381 kts | 255° |
| 2026-04-23 04:56 | 29.02028 | -79.81075 | 26211 ft | 378 kts | 254° |
| 2026-04-23 04:57 | 29.01167 | -79.83898 | 25729 ft | 376 kts | 254° |
| 2026-04-23 04:57 | 29.00310 | -79.86710 | 25224 ft | 373 kts | 254° |
| 2026-04-23 04:57 | 28.99456 | -79.89503 | 24748 ft | 371 kts | 254° |
| 2026-04-23 04:57 | 28.98605 | -79.92288 | 24252 ft | 370 kts | 254° |
| 2026-04-23 04:58 | 28.97759 | -79.95056 | 23772 ft | 369 kts | 254° |
| 2026-04-23 04:58 | 28.96910 | -79.97829 | 23225 ft | 367 kts | 254° |
| 2026-04-23 04:58 | 28.96108 | -80.00581 | 22750 ft | 363 kts | 255° |
| 2026-04-23 04:58 | 28.95360 | -80.03319 | 22262 ft | 360 kts | 256° |
| 2026-04-23 04:59 | 28.94624 | -80.06046 | 21783 ft | 358 kts | 255° |
| 2026-04-23 04:59 | 28.93886 | -80.08756 | 21292 ft | 356 kts | 255° |
| 2026-04-23 04:59 | 28.93143 | -80.11457 | 20801 ft | 355 kts | 255° |
| 2026-04-23 04:59 | 28.92410 | -80.14106 | 20335 ft | 354 kts | 255° |
| 2026-04-23 05:00 | 28.91670 | -80.16773 | 19852 ft | 353 kts | 254° |
| 2026-04-23 05:00 | 28.90926 | -80.19445 | 19358 ft | 352 kts | 254° |
| 2026-04-23 05:00 | 28.90184 | -80.22111 | 18877 ft | 352 kts | 254° |
| 2026-04-23 05:00 | 28.89441 | -80.24774 | 18375 ft | 352 kts | 254° |
| 2026-04-23 05:01 | 28.88699 | -80.27434 | 17861 ft | 351 kts | 254° |
| 2026-04-23 05:01 | 28.87961 | -80.30077 | 17374 ft | 349 kts | 254° |
| 2026-04-23 05:01 | 28.87221 | -80.32727 | 16579 ft | 355 kts | 254° |
| 2026-04-23 05:01 | 28.86465 | -80.35432 | 16125 ft | 360 kts | 253° |
| 2026-04-23 05:02 | 28.85698 | -80.38175 | 15664 ft | 366 kts | 253° |
| 2026-04-23 05:02 | 28.84919 | -80.40960 | 15140 ft | 367 kts | 253° |
| 2026-04-23 05:02 | 28.84144 | -80.43720 | 14628 ft | 364 kts | 253° |
| 2026-04-23 05:02 | 28.83386 | -80.46476 | 14126 ft | 362 kts | 256° |
| 2026-04-23 05:03 | 28.82922 | -80.49277 | 13670 ft | 358 kts | 265° |
| 2026-04-23 05:03 | 28.82727 | -80.52057 | 13441 ft | 356 kts | 266° |
| 2026-04-23 05:03 | 28.82507 | -80.54888 | 13179 ft | 360 kts | 265° |
| 2026-04-23 05:03 | 28.82271 | -80.57736 | 12887 ft | 360 kts | 265° |
| 2026-04-23 05:04 | 28.82032 | -80.60585 | 12598 ft | 359 kts | 265° |
| 2026-04-23 05:04 | 28.81796 | -80.63425 | 12304 ft | 357 kts | 265° |
| 2026-04-23 05:04 | 28.81566 | -80.66195 | 12150 ft | 355 kts | 265° |
| 2026-04-23 05:04 | 28.81335 | -80.68999 | 11730 ft | 355 kts | 265° |
| 2026-04-23 05:05 | 28.81104 | -80.71794 | 11444 ft | 352 kts | 265° |
| 2026-04-23 05:05 | 28.80877 | -80.74531 | 11328 ft | 343 kts | 265° |
| 2026-04-23 05:05 | 28.80656 | -80.77190 | 11231 ft | 329 kts | 265° |
| 2026-04-23 05:05 | 28.80446 | -80.79707 | 11118 ft | 316 kts | 265° |
| 2026-04-23 05:06 | 28.80239 | -80.82191 | 10916 ft | 307 kts | 265° |
| 2026-04-23 05:06 | 28.80038 | -80.84594 | 10483 ft | 308 kts | 265° |
| 2026-04-23 05:06 | 28.79835 | -80.87018 | 10131 ft | 307 kts | 265° |
| 2026-04-23 05:06 | 28.79631 | -80.89439 | 9738 ft | 305 kts | 265° |
| 2026-04-23 05:07 | 28.79430 | -80.91845 | 9313 ft | 304 kts | 265° |
| 2026-04-23 05:07 | 28.79230 | -80.94215 | 9172 ft | 294 kts | 265° |
| 2026-04-23 05:07 | 28.79038 | -80.96486 | 9070 ft | 282 kts | 265° |
| 2026-04-23 05:07 | 28.78853 | -80.98678 | 8979 ft | 272 kts | 265° |
| 2026-04-23 05:08 | 28.78676 | -81.00776 | 8893 ft | 261 kts | 265° |
| 2026-04-23 05:08 | 28.78503 | -81.02805 | 8773 ft | 254 kts | 265° |
| 2026-04-23 05:08 | 28.78327 | -81.04819 | 8451 ft | 256 kts | 264° |
| 2026-04-23 05:08 | 28.78140 | -81.06813 | 8178 ft | 256 kts | 264° |
| 2026-04-23 05:09 | 28.77947 | -81.08828 | 7915 ft | 255 kts | 264° |
| 2026-04-23 05:09 | 28.77757 | -81.10837 | 7653 ft | 254 kts | 264° |
| 2026-04-23 05:09 | 28.77568 | -81.12839 | 7420 ft | 254 kts | 264° |
| 2026-04-23 05:09 | 28.77383 | -81.14832 | 7193 ft | 253 kts | 264° |
| 2026-04-23 05:10 | 28.77071 | -81.16805 | 6949 ft | 255 kts | 246° |
| 2026-04-23 05:10 | 28.76322 | -81.18634 | 6813 ft | 257 kts | 243° |
| 2026-04-23 05:10 | 28.75547 | -81.20476 | 6561 ft | 258 kts | 243° |
| 2026-04-23 05:10 | 28.74772 | -81.22327 | 6167 ft | 265 kts | 244° |
| 2026-04-23 05:11 | 28.73974 | -81.24248 | 5707 ft | 272 kts | 244° |
| 2026-04-23 05:11 | 28.73429 | -81.25565 | 5325 ft | 277 kts | 244° |
| 2026-04-23 05:11 | 28.72760 | -81.28408 | 4750 ft | 282 kts | 272° |
| 2026-04-23 05:11 | 28.72982 | -81.29853 | 4500 ft | 280 kts | 290° |
| 2026-04-23 05:12 | 28.73724 | -81.31904 | 4148 ft | 279 kts | 294° |
| 2026-04-23 05:12 | 28.74736 | -81.34588 | 3972 ft | 277 kts | 299° |
| 2026-04-23 05:12 | 28.75498 | -81.35786 | 3973 ft | 275 kts | 318° |
| 2026-04-23 05:12 | 28.77098 | -81.36910 | 3982 ft | 271 kts | 346° |
| 2026-04-23 05:13 | 28.78937 | -81.37073 | 3979 ft | 265 kts | 13° |
| 2026-04-23 05:13 | 28.80604 | -81.36255 | 3972 ft | 259 kts | 41° |
| 2026-04-23 05:13 | 28.81690 | -81.34681 | 3970 ft | 254 kts | 69° |
| 2026-04-23 05:14 | 28.81347 | -81.30841 | 3971 ft | 255 kts | 125° |
| 2026-04-23 05:14 | 28.80021 | -81.29554 | 3979 ft | 258 kts | 152° |
| 2026-04-23 05:14 | 28.78268 | -81.29130 | 3969 ft | 264 kts | 180° |
| 2026-04-23 05:14 | 28.76425 | -81.29518 | 3975 ft | 267 kts | 191° |
| 2026-04-23 05:15 | 28.74651 | -81.30044 | 3973 ft | 267 kts | 192° |
| 2026-04-23 05:15 | 28.72848 | -81.30597 | 3974 ft | 268 kts | 192° |
| 2026-04-23 05:15 | 28.71041 | -81.31145 | 3712 ft | 273 kts | 192° |
| 2026-04-23 05:15 | 28.69193 | -81.31699 | 3509 ft | 270 kts | 192° |
| 2026-04-23 05:16 | 28.67407 | -81.32232 | 3223 ft | 267 kts | 191° |
| 2026-04-23 05:16 | 28.65600 | -81.32750 | 3018 ft | 259 kts | 187° |
| 2026-04-23 05:16 | 28.63858 | -81.32923 | 2977 ft | 244 kts | 177° |
| 2026-04-23 05:16 | 28.62228 | -81.32884 | 2991 ft | 229 kts | 175° |
| 2026-04-23 05:17 | 28.60689 | -81.32874 | 2978 ft | 215 kts | 176° |
| 2026-04-23 05:17 | 28.59240 | -81.32855 | 2967 ft | 201 kts | 175° |
| 2026-04-23 05:17 | 28.57859 | -81.32840 | 2659 ft | 190 kts | 175° |
| 2026-04-23 05:17 | 28.56611 | -81.32827 | 2358 ft | 172 kts | 175° |
| 2026-04-23 05:18 | 28.55465 | -81.32817 | 2132 ft | 156 kts | 175° |
| 2026-04-23 05:18 | 28.54412 | -81.32805 | 1923 ft | 147 kts | 174° |
| 2026-04-23 05:18 | 28.53410 | -81.32790 | 1725 ft | 143 kts | 174° |
| 2026-04-23 05:18 | 28.52417 | -81.32780 | 1536 ft | 142 kts | 174° |
| 2026-04-23 05:19 | 28.51431 | -81.32769 | 1354 ft | 141 kts | 174° |
| 2026-04-23 05:19 | 28.50447 | -81.32756 | 1161 ft | 142 kts | 174° |
| 2026-04-23 05:19 | 28.49461 | -81.32748 | 978 ft | 142 kts | 175° |
| 2026-04-23 05:19 | 28.48466 | -81.32737 | 816 ft | 142 kts | 176° |
| 2026-04-23 05:20 | 28.47479 | -81.32726 | 649 ft | 142 kts | 177° |
| 2026-04-23 05:20 | 28.46507 | -81.32715 | 465 ft | 141 kts | 178° |
| 2026-04-23 05:20 | 28.45513 | -81.32705 | 280 ft | 140 kts | 179° |
| 2026-04-23 05:20 | 28.44541 | -81.32701 | 108 ft | 139 kts | 180° |
| 2026-04-23 05:21 | 28.43740 | -81.32682 | 106 ft | 87 kts | 180° |
| 2026-04-23 05:21 | 28.43375 | -81.32681 | 107 ft | 18 kts | 180° |
| 2026-04-23 05:21 | 28.43321 | -81.32681 | 108 ft | 9 kts | 180° |
| 2026-04-23 05:21 | 28.43244 | -81.32681 | 108 ft | 13 kts | 180° |
| 2026-04-23 05:22 | 28.43145 | -81.32666 | 106 ft | 16 kts | 156° |
| 2026-04-23 05:22 | 28.43083 | -81.32573 | 104 ft | 16 kts | 115° |
| 2026-04-23 05:22 | 28.43061 | -81.32458 | 106 ft | 0 kts | 93° |
| 2026-04-23 05:22 | 28.43060 | -81.32442 | 106 ft | 5 kts | 93° |
| 2026-04-23 05:23 | 28.43057 | -81.32385 | 103 ft | 10 kts | 93° |
| 2026-04-23 05:23 | 28.43053 | -81.32293 | 103 ft | 13 kts | 93° |
| 2026-04-23 05:23 | 28.43047 | -81.32174 | 105 ft | 17 kts | 93° |
| 2026-04-23 05:23 | 28.43037 | -81.32044 | 103 ft | 14 kts | 115° |
| 2026-04-23 05:24 | 28.42980 | -81.31995 | 105 ft | 11 kts | 178° |
| 2026-04-23 05:24 | 28.42893 | -81.31991 | 104 ft | 14 kts | 178° |
| 2026-04-23 05:24 | 28.42791 | -81.31988 | 107 ft | 15 kts | 178° |
| 2026-04-23 05:24 | 28.42681 | -81.31984 | 106 ft | 16 kts | 178° |
| 2026-04-23 05:25 | 28.42567 | -81.31989 | 109 ft | 17 kts | 179° |
| 2026-04-23 05:25 | 28.42442 | -81.31989 | 105 ft | 19 kts | 179° |
| 2026-04-23 05:25 | 28.42353 | -81.31974 | 107 ft | 5 kts | 110° |
| 2026-04-23 05:25 | 28.42349 | -81.31912 | 106 ft | 11 kts | 92° |
| 2026-04-23 05:26 | 28.42348 | -81.31810 | 105 ft | 15 kts | 91° |
| 2026-04-23 05:26 | 28.42346 | -81.31679 | 104 ft | 18 kts | 89° |
| 2026-04-23 05:26 | 28.42349 | -81.31532 | 102 ft | 19 kts | 88° |
| 2026-04-23 05:26 | 28.42351 | -81.31382 | 100 ft | 19 kts | 88° |
| 2026-04-23 05:27 | 28.42342 | -81.31231 | 101 ft | 19 kts | 98° |
| 2026-04-23 05:27 | 28.42322 | -81.31075 | 99 ft | 20 kts | 97° |
| 2026-04-23 05:27 | 28.42314 | -81.30912 | 102 ft | 21 kts | 92° |
| 2026-04-23 05:27 | 28.42329 | -81.30756 | 101 ft | 20 kts | 83° |
| 2026-04-23 05:28 | 28.42342 | -81.30607 | 102 ft | 20 kts | 85° |
| 2026-04-23 05:28 | 28.42355 | -81.30442 | 99 ft | 21 kts | 85° |
| 2026-04-23 05:28 | 28.42364 | -81.30272 | 99 ft | 22 kts | 92° |
| 2026-04-23 05:28 | 28.42361 | -81.30097 | 101 ft | 22 kts | 86° |
| 2026-04-23 05:29 | 28.42362 | -81.29921 | 99 ft | 22 kts | 92° |
| 2026-04-23 05:29 | 28.42404 | -81.29811 | 103 ft | 11 kts | 3° |
| 2026-04-23 05:29 | 28.42496 | -81.29807 | 101 ft | 15 kts | 2° |
| 2026-04-23 05:29 | 28.42578 | -81.29821 | 102 ft | 4 kts | 307° |
| 2026-04-23 05:30 | 28.42580 | -81.29857 | 101 ft | 8 kts | 269° |
| 2026-04-23 05:30 | 28.42578 | -81.29940 | 99 ft | 12 kts | 271° |
| 2026-04-23 05:30 | 28.42579 | -81.29971 | 99 ft | 4 kts | 275° |
| 2026-04-23 05:30 | 28.42580 | -81.29980 | 99 ft | 0 kts | 275° |